createdAt,value
2022-12-22T00:00:01.565Z,95.61
2022-12-22T00:10:24.150Z,95.20
2022-12-22T00:20:44.751Z,95.66
2022-12-22T00:31:07.322Z,95.72
2022-12-22T00:41:27.802Z,96.13
2022-12-22T00:51:51.076Z,96.68
2022-12-22T01:02:11.868Z,96.92
2022-12-22T01:12:38.827Z,97.30
2022-12-22T01:23:00.227Z,96.80
2022-12-22T01:33:22.022Z,97.81
2022-12-22T01:43:45.680Z,97.35
2022-12-22T01:54:07.512Z,98.43
2022-12-22T02:04:28.337Z,98.75
2022-12-22T02:14:59.252Z,100.00
2022-12-22T02:25:23.858Z,100.00
2022-12-22T02:35:46.125Z,100.00
2022-12-22T02:46:14.166Z,100.00
2022-12-22T02:56:35.941Z,100.00
2022-12-22T03:06:56.261Z,100.00
2022-12-22T03:17:18.303Z,100.00
2022-12-22T03:27:21.218Z,100.00
2022-12-22T03:37:25.621Z,100.00
2022-12-22T03:47:28.580Z,100.00
2022-12-22T03:57:33.237Z,100.00
2022-12-22T04:07:36.142Z,100.00
2022-12-22T04:17:40.537Z,100.00
2022-12-22T04:27:43.603Z,100.00
2022-12-22T04:37:47.894Z,100.00
2022-12-22T04:47:51.728Z,100.00
2022-12-22T04:57:56.460Z,100.00
2022-12-22T05:07:59.530Z,100.00
2022-12-22T05:18:04.994Z,100.00
2022-12-22T05:28:07.957Z,100.00
2022-12-22T05:38:12.564Z,100.00
2022-12-22T05:48:15.596Z,100.00
2022-12-22T05:58:19.923Z,100.00
2022-12-22T06:08:23.348Z,100.00
2022-12-22T06:18:28.363Z,100.00
2022-12-22T06:28:32.292Z,100.00
2022-12-22T06:38:36.891Z,100.00
2022-12-22T06:48:39.780Z,100.00
2022-12-22T06:58:44.105Z,100.00
2022-12-22T07:08:47.668Z,100.00
2022-12-22T07:18:52.041Z,100.00
2022-12-22T07:28:55.247Z,100.00
2022-12-22T07:38:59.691Z,100.00
2022-12-22T07:49:20.479Z,100.00
2022-12-22T07:59:24.954Z,100.00
2022-12-22T08:09:28.055Z,100.00
2022-12-22T08:19:33.271Z,100.00
2022-12-22T08:29:41.566Z,100.00
2022-12-22T08:39:49.043Z,100.00
2022-12-22T08:49:52.203Z,100.00
2022-12-22T08:59:56.802Z,100.00
2022-12-22T09:09:59.540Z,100.00
2022-12-22T09:20:04.892Z,100.00
2022-12-22T09:30:09.612Z,100.00
2022-12-22T09:40:14.722Z,100.00
2022-12-22T09:50:18.296Z,100.00
2022-12-22T10:00:25.753Z,100.00
2022-12-22T10:10:31.263Z,100.00
2022-12-22T10:20:38.465Z,100.00
2022-12-22T10:30:44.332Z,100.00
2022-12-22T10:40:53.071Z,100.00
2022-12-22T10:51:01.713Z,100.00
2022-12-22T11:01:06.502Z,100.00
2022-12-22T11:11:15.416Z,100.00
2022-12-22T11:21:26.765Z,100.00
2022-12-22T11:31:47.125Z,100.00
2022-12-22T11:42:05.445Z,100.00
2022-12-22T11:52:21.551Z,100.00
2022-12-22T12:02:56.957Z,100.00
2022-12-22T12:13:08.829Z,100.00
2022-12-22T12:23:30.874Z,100.00
2022-12-22T12:33:40.972Z,100.00
2022-12-22T12:43:47.349Z,100.00
2022-12-22T12:54:38.006Z,99.84
2022-12-22T13:05:29.683Z,98.14
2022-12-22T13:15:34.684Z,96.51
2022-12-22T13:25:46.670Z,96.83
2022-12-22T13:35:56.706Z,97.48
2022-12-22T13:46:05.973Z,97.59
2022-12-22T13:56:14.818Z,95.89
2022-12-22T14:06:28.531Z,97.80
2022-12-22T14:16:31.969Z,97.57
2022-12-22T14:26:37.791Z,98.38
2022-12-22T14:36:46.014Z,99.61
2022-12-22T14:47:12.713Z,99.13
2022-12-22T14:57:21.164Z,100.00
2022-12-22T15:08:03.200Z,99.55
2022-12-22T15:17:51.739Z,100.00
2022-12-22T15:27:55.950Z,100.00
2022-12-22T15:38:00.489Z,99.28
2022-12-22T15:48:06.861Z,99.47
2022-12-22T15:58:13.341Z,100.00
2022-12-22T16:08:21.170Z,100.00
2022-12-22T16:18:24.673Z,100.00
2022-12-22T16:28:29.170Z,99.04
2022-12-22T16:38:32.210Z,100.00
2022-12-22T16:48:40.897Z,99.47
2022-12-22T16:58:43.891Z,100.00
2022-12-22T17:08:48.500Z,100.00
2022-12-22T17:18:51.505Z,100.00
2022-12-22T17:28:56.060Z,100.00
2022-12-22T17:38:59.870Z,100.00
2022-12-22T17:49:04.257Z,100.00
2022-12-22T17:59:07.272Z,100.00
2022-12-22T18:09:20.663Z,99.98
2022-12-22T18:19:24.661Z,100.00
2022-12-22T18:29:30.027Z,100.00
2022-12-22T18:39:33.338Z,100.00
2022-12-22T18:49:37.814Z,100.00
2022-12-22T18:59:40.890Z,100.00
2022-12-22T19:09:45.366Z,100.00
2022-12-22T19:19:48.478Z,100.00
2022-12-22T19:30:02.593Z,100.00
2022-12-22T19:40:08.225Z,100.00
2022-12-22T19:50:17.235Z,100.00
2022-12-22T20:00:22.796Z,100.00
2022-12-22T20:10:29.096Z,100.00
2022-12-22T20:20:34.339Z,100.00
2022-12-22T20:30:38.356Z,100.00
2022-12-22T20:40:41.366Z,100.00
2022-12-22T20:50:45.960Z,100.00
2022-12-22T21:00:49.634Z,100.00
2022-12-22T21:10:55.602Z,100.00
2022-12-22T21:20:58.364Z,100.00
2022-12-22T21:31:03.539Z,100.00
2022-12-22T21:41:06.757Z,100.00
2022-12-22T21:51:13.107Z,100.00
2022-12-22T22:01:17.225Z,100.00
2022-12-22T22:11:23.873Z,100.00
2022-12-22T22:31:49.025Z,100.00
2022-12-22T22:41:52.506Z,100.00
2022-12-22T22:51:56.951Z,100.00
2022-12-22T23:02:00.026Z,100.00
2022-12-22T23:12:05.709Z,100.00
2022-12-22T23:22:08.873Z,100.00
2022-12-22T23:32:13.255Z,100.00
2022-12-22T23:42:16.409Z,100.00
2022-12-22T23:52:20.920Z,100.00
